sensor_id;sensor_type;location;lat;lon;timestamp;pressure;altitude;pressure_sealevel;temperature;humidity
20624;BME280;10471;42.736;23.346;2023-09-19T00:01:33;95918.66;;;15.87;100.00
20624;BME280;10471;42.736;23.346;2023-09-19T00:03:59;95917.28;;;15.90;100.00
20624;BME280;10471;42.736;23.346;2023-09-19T00:06:24;95923.38;;;15.90;100.00
20624;BME280;10471;42.736;23.346;2023-09-19T00:08:54;95921.59;;;15.86;100.00
20624;BME280;10471;42.736;23.346;2023-09-19T00:11:20;95922.38;;;15.86;100.00
20624;BME280;10471;42.736;23.346;2023-09-19T00:13:47;95918.03;;;15.77;100.00
20624;BME280;10471;42.736;23.346;2023-09-19T00:16:15;95919.78;;;15.68;100.00
20624;BME280;10471;42.736;23.346;2023-09-19T00:18:40;95916.38;;;15.68;100.00
20624;BME280;10471;42.736;23.346;2023-09-19T00:21:05;95911.63;;;15.65;100.00
20624;BME280;10471;42.736;23.346;2023-09-19T00:23:32;95917.31;;;15.58;100.00
20624;BME280;10471;42.736;23.346;2023-09-19T00:25:59;95923.72;;;15.57;100.00
20624;BME280;10471;42.736;23.346;2023-09-19T00:28:24;95914.16;;;15.56;100.00
20624;BME280;10471;42.736;23.346;2023-09-19T00:30:51;95916.22;;;15.46;100.00
20624;BME280;10471;42.736;23.346;2023-09-19T00:33:16;95910.38;;;15.44;100.00
20624;BME280;10471;42.736;23.346;2023-09-19T00:35:52;95904.31;;;15.43;100.00
20624;BME280;10471;42.736;23.346;2023-09-19T00:38:19;95902.03;;;15.37;100.00
20624;BME280;10471;42.736;23.346;2023-09-19T00:40:48;95898.88;;;15.35;100.00
20624;BME280;10471;42.736;23.346;2023-09-19T00:43:14;95895.31;;;15.26;100.00
20624;BME280;10471;42.736;23.346;2023-09-19T00:45:43;95886.06;;;15.23;100.00
20624;BME280;10471;42.736;23.346;2023-09-19T00:48:09;95888.72;;;15.23;100.00
20624;BME280;10471;42.736;23.346;2023-09-19T00:50:35;95889.41;;;15.29;100.00
20624;BME280;10471;42.736;23.346;2023-09-19T00:53:01;95899.81;;;15.25;100.00
20624;BME280;10471;42.736;23.346;2023-09-19T00:55:33;95893.72;;;15.25;100.00
20624;BME280;10471;42.736;23.346;2023-09-19T00:58:00;95890.28;;;15.24;100.00
20624;BME280;10471;42.736;23.346;2023-09-19T01:00:25;95891.06;;;15.25;100.00
20624;BME280;10471;42.736;23.346;2023-09-19T01:02:51;95898.25;;;15.24;100.00
20624;BME280;10471;42.736;23.346;2023-09-19T01:05:16;95898.00;;;15.21;100.00
20624;BME280;10471;42.736;23.346;2023-09-19T01:07:42;95904.41;;;15.20;100.00
20624;BME280;10471;42.736;23.346;2023-09-19T01:10:11;95905.47;;;15.19;100.00
20624;BME280;10471;42.736;23.346;2023-09-19T01:15:59;95891.78;;;15.12;100.00
20624;BME280;10471;42.736;23.346;2023-09-19T01:18:40;95887.13;;;15.04;100.00
20624;BME280;10471;42.736;23.346;2023-09-19T01:29:37;95899.44;;;14.82;100.00
20624;BME280;10471;42.736;23.346;2023-09-19T01:32:05;95895.97;;;14.81;100.00
20624;BME280;10471;42.736;23.346;2023-09-19T01:34:47;95898.63;;;14.81;100.00
20624;BME280;10471;42.736;23.346;2023-09-19T01:37:14;95889.16;;;14.75;100.00
20624;BME280;10471;42.736;23.346;2023-09-19T01:39:44;95891.31;;;14.73;100.00
20624;BME280;10471;42.736;23.346;2023-09-19T01:42:24;95889.16;;;14.75;100.00
20624;BME280;10471;42.736;23.346;2023-09-19T01:45:01;95900.34;;;14.72;100.00
20624;BME280;10471;42.736;23.346;2023-09-19T01:47:46;95884.66;;;14.57;100.00
20624;BME280;10471;42.736;23.346;2023-09-19T01:53:27;95893.16;;;14.54;100.00
20624;BME280;10471;42.736;23.346;2023-09-19T01:55:57;95899.72;;;14.43;100.00
20624;BME280;10471;42.736;23.346;2023-09-19T02:00:58;95900.66;;;14.52;100.00
20624;BME280;10471;42.736;23.346;2023-09-19T02:03:25;95896.34;;;14.56;100.00
20624;BME280;10471;42.736;23.346;2023-09-19T02:05:52;95904.81;;;14.58;100.00
20624;BME280;10471;42.736;23.346;2023-09-19T02:08:19;95900.00;;;14.60;100.00
20624;BME280;10471;42.736;23.346;2023-09-19T02:10:45;95897.34;;;14.60;100.00
20624;BME280;10471;42.736;23.346;2023-09-19T02:13:16;95899.50;;;14.58;100.00
20624;BME280;10471;42.736;23.346;2023-09-19T02:15:42;95901.66;;;14.56;100.00
20624;BME280;10471;42.736;23.346;2023-09-19T02:18:09;95896.63;;;14.55;100.00
20624;BME280;10471;42.736;23.346;2023-09-19T02:20:34;95899.56;;;14.53;100.00
20624;BME280;10471;42.736;23.346;2023-09-19T02:23:00;95893.75;;;14.51;100.00
20624;BME280;10471;42.736;23.346;2023-09-19T02:25:26;95895.13;;;14.49;100.00
20624;BME280;10471;42.736;23.346;2023-09-19T02:27:52;95889.88;;;14.44;100.00
20624;BME280;10471;42.736;23.346;2023-09-19T02:30:19;95887.00;;;14.41;100.00
20624;BME280;10471;42.736;23.346;2023-09-19T02:32:46;95888.66;;;14.37;100.00
20624;BME280;10471;42.736;23.346;2023-09-19T02:35:11;95884.44;;;14.36;100.00
20624;BME280;10471;42.736;23.346;2023-09-19T02:37:39;95885.00;;;14.33;100.00
20624;BME280;10471;42.736;23.346;2023-09-19T02:40:05;95872.81;;;14.32;100.00
20624;BME280;10471;42.736;23.346;2023-09-19T02:42:44;95868.66;;;14.26;100.00
20624;BME280;10471;42.736;23.346;2023-09-19T02:45:14;95860.19;;;14.24;100.00
20624;BME280;10471;42.736;23.346;2023-09-19T02:47:43;95861.28;;;14.23;100.00
20624;BME280;10471;42.736;23.346;2023-09-19T02:50:09;95858.97;;;14.16;100.00
20624;BME280;10471;42.736;23.346;2023-09-19T02:52:36;95872.50;;;14.15;100.00
20624;BME280;10471;42.736;23.346;2023-09-19T02:55:02;95862.78;;;14.10;100.00
20624;BME280;10471;42.736;23.346;2023-09-19T02:57:29;95861.78;;;14.01;100.00
20624;BME280;10471;42.736;23.346;2023-09-19T02:59:54;95862.00;;;14.05;100.00
20624;BME280;10471;42.736;23.346;2023-09-19T03:02:20;95860.41;;;14.04;100.00
20624;BME280;10471;42.736;23.346;2023-09-19T03:04:49;95856.75;;;14.00;100.00
20624;BME280;10471;42.736;23.346;2023-09-19T03:07:16;95854.88;;;14.00;100.00
20624;BME280;10471;42.736;23.346;2023-09-19T03:09:42;95857.75;;;14.04;100.00
20624;BME280;10471;42.736;23.346;2023-09-19T03:12:08;95852.97;;;14.06;100.00
20624;BME280;10471;42.736;23.346;2023-09-19T03:14:33;95846.69;;;14.02;100.00
20624;BME280;10471;42.736;23.346;2023-09-19T03:17:00;95849.81;;;14.04;100.00
20624;BME280;10471;42.736;23.346;2023-09-19T03:19:26;95841.31;;;14.07;100.00
20624;BME280;10471;42.736;23.346;2023-09-19T03:21:52;95834.97;;;14.03;100.00
20624;BME280;10471;42.736;23.346;2023-09-19T03:24:18;95847.22;;;13.99;100.00
20624;BME280;10471;42.736;23.346;2023-09-19T03:26:44;95837.44;;;13.99;100.00
20624;BME280;10471;42.736;23.346;2023-09-19T03:29:10;95838.44;;;14.03;100.00
20624;BME280;10471;42.736;23.346;2023-09-19T03:31:36;95845.88;;;14.01;100.00
20624;BME280;10471;42.736;23.346;2023-09-19T03:34:04;95848.22;;;14.03;100.00
20624;BME280;10471;42.736;23.346;2023-09-19T03:36:30;95851.47;;;14.00;100.00
20624;BME280;10471;42.736;23.346;2023-09-19T03:38:55;95854.63;;;14.02;100.00
20624;BME280;10471;42.736;23.346;2023-09-19T03:41:21;95862.66;;;13.97;100.00
20624;BME280;10471;42.736;23.346;2023-09-19T03:43:46;95861.34;;;13.94;100.00
20624;BME280;10471;42.736;23.346;2023-09-19T03:46:12;95865.84;;;13.94;100.00
20624;BME280;10471;42.736;23.346;2023-09-19T03:48:40;95855.25;;;13.94;100.00
20624;BME280;10471;42.736;23.346;2023-09-19T03:51:05;95859.59;;;13.85;100.00
20624;BME280;10471;42.736;23.346;2023-09-19T03:53:31;95860.66;;;13.84;100.00
20624;BME280;10471;42.736;23.346;2023-09-19T03:55:56;95858.97;;;13.70;100.00
20624;BME280;10471;42.736;23.346;2023-09-19T03:58:22;95867.16;;;13.73;100.00
20624;BME280;10471;42.736;23.346;2023-09-19T04:00:48;95870.75;;;13.82;100.00
20624;BME280;10471;42.736;23.346;2023-09-19T04:03:15;95867.03;;;13.83;100.00
20624;BME280;10471;42.736;23.346;2023-09-19T04:05:46;95864.91;;;13.85;100.00
20624;BME280;10471;42.736;23.346;2023-09-19T04:08:12;95866.97;;;13.88;100.00
20624;BME280;10471;42.736;23.346;2023-09-19T04:10:37;95873.84;;;13.89;100.00
20624;BME280;10471;42.736;23.346;2023-09-19T04:13:03;95874.03;;;13.74;100.00
20624;BME280;10471;42.736;23.346;2023-09-19T04:15:29;95879.28;;;13.79;100.00
20624;BME280;10471;42.736;23.346;2023-09-19T04:17:54;95887.09;;;13.89;100.00
20624;BME280;10471;42.736;23.346;2023-09-19T04:20:20;95878.03;;;13.95;100.00
20624;BME280;10471;42.736;23.346;2023-09-19T04:22:48;95877.38;;;14.03;100.00
20624;BME280;10471;42.736;23.346;2023-09-19T04:25:14;95872.59;;;14.05;100.00
20624;BME280;10471;42.736;23.346;2023-09-19T04:27:39;95869.38;;;14.08;100.00
20624;BME280;10471;42.736;23.346;2023-09-19T04:30:07;95873.09;;;14.12;100.00
20624;BME280;10471;42.736;23.346;2023-09-19T04:32:40;95872.03;;;14.13;100.00
20624;BME280;10471;42.736;23.346;2023-09-19T04:35:10;95875.16;;;14.15;100.00
20624;BME280;10471;42.736;23.346;2023-09-19T04:37:39;95873.03;;;14.17;100.00
20624;BME280;10471;42.736;23.346;2023-09-19T04:40:09;95881.53;;;14.14;100.00
20624;BME280;10471;42.736;23.346;2023-09-19T04:42:45;95882.09;;;14.11;100.00
20624;BME280;10471;42.736;23.346;2023-09-19T04:45:17;95877.59;;;14.11;100.00
20624;BME280;10471;42.736;23.346;2023-09-19T04:47:45;95872.50;;;14.15;100.00
20624;BME280;10471;42.736;23.346;2023-09-19T04:50:10;95868.72;;;14.21;100.00
20624;BME280;10471;42.736;23.346;2023-09-19T04:52:42;95864.34;;;14.30;100.00
20624;BME280;10471;42.736;23.346;2023-09-19T04:55:13;95872.69;;;14.42;100.00
20624;BME280;10471;42.736;23.346;2023-09-19T04:57:42;95868.00;;;14.52;100.00
20624;BME280;10471;42.736;23.346;2023-09-19T05:00:08;95859.06;;;14.66;100.00
20624;BME280;10471;42.736;23.346;2023-09-19T05:02:38;95867.28;;;14.83;100.00
20624;BME280;10471;42.736;23.346;2023-09-19T05:05:06;95876.59;;;14.99;100.00
20624;BME280;10471;42.736;23.346;2023-09-19T05:07:32;95867.31;;;15.15;100.00
20624;BME280;10471;42.736;23.346;2023-09-19T05:09:59;95869.75;;;15.30;100.00
20624;BME280;10471;42.736;23.346;2023-09-19T05:12:26;95865.22;;;15.44;100.00
20624;BME280;10471;42.736;23.346;2023-09-19T05:14:52;95869.19;;;15.60;100.00
20624;BME280;10471;42.736;23.346;2023-09-19T05:17:18;95863.03;;;15.77;100.00
20624;BME280;10471;42.736;23.346;2023-09-19T05:19:43;95863.50;;;15.93;100.00
20624;BME280;10471;42.736;23.346;2023-09-19T05:22:08;95866.16;;;16.06;100.00
20624;BME280;10471;42.736;23.346;2023-09-19T05:24:34;95864.28;;;16.20;100.00
20624;BME280;10471;42.736;23.346;2023-09-19T05:26:59;95871.19;;;16.35;100.00
20624;BME280;10471;42.736;23.346;2023-09-19T05:29:25;95865.84;;;16.48;100.00
20624;BME280;10471;42.736;23.346;2023-09-19T05:31:51;95860.38;;;16.66;100.00
20624;BME280;10471;42.736;23.346;2023-09-19T05:34:16;95857.34;;;16.81;100.00
20624;BME280;10471;42.736;23.346;2023-09-19T05:36:42;95850.28;;;16.99;100.00
20624;BME280;10471;42.736;23.346;2023-09-19T05:39:08;95848.53;;;17.16;100.00
20624;BME280;10471;42.736;23.346;2023-09-19T05:41:35;95854.47;;;17.13;100.00
20624;BME280;10471;42.736;23.346;2023-09-19T05:44:02;95847.72;;;17.15;100.00
20624;BME280;10471;42.736;23.346;2023-09-19T05:46:28;95849.63;;;17.15;100.00
20624;BME280;10471;42.736;23.346;2023-09-19T05:48:55;95842.59;;;17.19;100.00
20624;BME280;10471;42.736;23.346;2023-09-19T05:51:22;95849.47;;;17.33;100.00
20624;BME280;10471;42.736;23.346;2023-09-19T05:53:48;95852.13;;;17.33;100.00
20624;BME280;10471;42.736;23.346;2023-09-19T05:56:14;95853.91;;;17.46;100.00
20624;BME280;10471;42.736;23.346;2023-09-19T05:58:40;95853.81;;;17.60;100.00
20624;BME280;10471;42.736;23.346;2023-09-19T06:01:08;95855.22;;;17.57;100.00
20624;BME280;10471;42.736;23.346;2023-09-19T06:03:34;95851.06;;;17.73;100.00
20624;BME280;10471;42.736;23.346;2023-09-19T06:06:01;95837.00;;;17.81;100.00
20624;BME280;10471;42.736;23.346;2023-09-19T06:08:26;95834.78;;;17.83;100.00
20624;BME280;10471;42.736;23.346;2023-09-19T06:10:53;95835.31;;;17.93;100.00
20624;BME280;10471;42.736;23.346;2023-09-19T06:13:18;95837.66;;;17.95;100.00
20624;BME280;10471;42.736;23.346;2023-09-19T06:15:45;95832.66;;;18.02;100.00
20624;BME280;10471;42.736;23.346;2023-09-19T06:18:12;95835.78;;;18.04;100.00
20624;BME280;10471;42.736;23.346;2023-09-19T06:20:42;95842.78;;;18.22;100.00
20624;BME280;10471;42.736;23.346;2023-09-19T06:23:09;95841.09;;;18.34;100.00
20624;BME280;10471;42.736;23.346;2023-09-19T06:25:35;95831.38;;;18.46;100.00
20624;BME280;10471;42.736;23.346;2023-09-19T06:28:00;95832.66;;;18.66;100.00
20624;BME280;10471;42.736;23.346;2023-09-19T06:30:31;95827.13;;;18.62;100.00
20624;BME280;10471;42.736;23.346;2023-09-19T06:32:58;95826.66;;;18.69;100.00
20624;BME280;10471;42.736;23.346;2023-09-19T06:35:24;95825.56;;;18.78;100.00
20624;BME280;10471;42.736;23.346;2023-09-19T06:37:51;95829.50;;;18.89;100.00
20624;BME280;10471;42.736;23.346;2023-09-19T06:40:18;95835.63;;;19.15;100.00
20624;BME280;10471;42.736;23.346;2023-09-19T06:42:46;95827.72;;;19.27;100.00
20624;BME280;10471;42.736;23.346;2023-09-19T06:45:14;95825.66;;;19.49;100.00
20624;BME280;10471;42.736;23.346;2023-09-19T06:47:47;95830.16;;;19.66;100.00
20624;BME280;10471;42.736;23.346;2023-09-19T06:50:15;95829.16;;;19.78;100.00
20624;BME280;10471;42.736;23.346;2023-09-19T06:52:45;95832.59;;;19.87;100.00
20624;BME280;10471;42.736;23.346;2023-09-19T06:55:11;95833.19;;;20.01;100.00
20624;BME280;10471;42.736;23.346;2023-09-19T06:57:39;95841.31;;;20.13;100.00
20624;BME280;10471;42.736;23.346;2023-09-19T07:00:06;95836.50;;;20.27;100.00
20624;BME280;10471;42.736;23.346;2023-09-19T07:02:43;95844.53;;;20.27;100.00
20624;BME280;10471;42.736;23.346;2023-09-19T07:05:09;95848.13;;;20.31;100.00
20624;BME280;10471;42.736;23.346;2023-09-19T07:07:34;95849.31;;;20.42;100.00
20624;BME280;10471;42.736;23.346;2023-09-19T07:10:03;95842.78;;;20.31;100.00
20624;BME280;10471;42.736;23.346;2023-09-19T07:12:33;95841.75;;;20.44;100.00
20624;BME280;10471;42.736;23.346;2023-09-19T07:14:58;95841.91;;;20.68;100.00
20624;BME280;10471;42.736;23.346;2023-09-19T07:17:24;95845.47;;;20.80;100.00
20624;BME280;10471;42.736;23.346;2023-09-19T07:19:49;95847.16;;;20.85;100.00
20624;BME280;10471;42.736;23.346;2023-09-19T07:22:15;95841.13;;;20.88;100.00
20624;BME280;10471;42.736;23.346;2023-09-19T07:24:41;95837.22;;;21.06;100.00
20624;BME280;10471;42.736;23.346;2023-09-19T07:27:06;95840.88;;;21.01;100.00
20624;BME280;10471;42.736;23.346;2023-09-19T07:29:31;95845.94;;;21.03;100.00
20624;BME280;10471;42.736;23.346;2023-09-19T07:31:57;95839.34;;;21.12;100.00
20624;BME280;10471;42.736;23.346;2023-09-19T07:34:22;95843.88;;;21.20;100.00
20624;BME280;10471;42.736;23.346;2023-09-19T07:36:49;95851.84;;;21.28;100.00
20624;BME280;10471;42.736;23.346;2023-09-19T07:39:15;95852.22;;;21.18;100.00
20624;BME280;10471;42.736;23.346;2023-09-19T07:41:40;95846.28;;;21.33;100.00
20624;BME280;10471;42.736;23.346;2023-09-19T07:44:06;95840.91;;;21.45;100.00
20624;BME280;10471;42.736;23.346;2023-09-19T07:46:31;95848.91;;;21.54;99.98
20624;BME280;10471;42.736;23.346;2023-09-19T07:48:57;95851.50;;;21.62;96.55
20624;BME280;10471;42.736;23.346;2023-09-19T07:51:22;95851.25;;;21.55;97.79
20624;BME280;10471;42.736;23.346;2023-09-19T07:53:48;95855.09;;;21.54;95.04
20624;BME280;10471;42.736;23.346;2023-09-19T07:56:14;95858.81;;;21.41;97.81
20624;BME280;10471;42.736;23.346;2023-09-19T07:58:40;95856.41;;;21.28;96.13
20624;BME280;10471;42.736;23.346;2023-09-19T08:01:10;95847.13;;;21.25;99.15
20624;BME280;10471;42.736;23.346;2023-09-19T08:03:36;95850.50;;;21.34;100.00
20624;BME280;10471;42.736;23.346;2023-09-19T08:06:06;95849.66;;;21.42;99.47
20624;BME280;10471;42.736;23.346;2023-09-19T08:08:32;95838.09;;;21.62;96.81
20624;BME280;10471;42.736;23.346;2023-09-19T08:11:02;95827.50;;;21.77;97.00
20624;BME280;10471;42.736;23.346;2023-09-19T08:13:29;95820.91;;;21.87;95.67
20624;BME280;10471;42.736;23.346;2023-09-19T08:15:56;95832.19;;;21.80;96.43
20624;BME280;10471;42.736;23.346;2023-09-19T08:18:21;95829.78;;;21.55;93.55
20624;BME280;10471;42.736;23.346;2023-09-19T08:20:52;95824.50;;;21.79;93.65
20624;BME280;10471;42.736;23.346;2023-09-19T08:23:18;95819.34;;;21.98;94.26
20624;BME280;10471;42.736;23.346;2023-09-19T08:25:45;95824.03;;;22.13;93.03
20624;BME280;10471;42.736;23.346;2023-09-19T08:28:11;95816.00;;;22.25;90.06
20624;BME280;10471;42.736;23.346;2023-09-19T08:30:37;95815.78;;;22.42;87.84
20624;BME280;10471;42.736;23.346;2023-09-19T08:33:05;95813.75;;;22.39;89.76
20624;BME280;10471;42.736;23.346;2023-09-19T08:35:31;95827.88;;;22.36;89.01
20624;BME280;10471;42.736;23.346;2023-09-19T08:37:57;95828.31;;;22.26;90.66
20624;BME280;10471;42.736;23.346;2023-09-19T08:40:22;95830.53;;;22.24;88.01
20624;BME280;10471;42.736;23.346;2023-09-19T08:42:53;95821.72;;;22.23;88.82
20624;BME280;10471;42.736;23.346;2023-09-19T08:45:24;95822.72;;;22.19;87.99
20624;BME280;10471;42.736;23.346;2023-09-19T08:53:21;95815.97;;;22.48;85.13
20624;BME280;10471;42.736;23.346;2023-09-19T08:55:52;95805.22;;;22.48;89.63
20624;BME280;10471;42.736;23.346;2023-09-19T08:58:25;95802.53;;;22.48;86.50
20624;BME280;10471;42.736;23.346;2023-09-19T09:00:55;95803.41;;;22.64;86.29
20624;BME280;10471;42.736;23.346;2023-09-19T09:03:22;95808.31;;;22.74;86.10
20624;BME280;10471;42.736;23.346;2023-09-19T09:05:49;95815.44;;;22.94;85.72
20624;BME280;10471;42.736;23.346;2023-09-19T09:08:16;95815.63;;;23.13;79.77
20624;BME280;10471;42.736;23.346;2023-09-19T09:10:44;95804.31;;;23.35;78.70
20624;BME280;10471;42.736;23.346;2023-09-19T09:13:10;95808.06;;;23.46;74.49
20624;BME280;10471;42.736;23.346;2023-09-19T09:15:40;95803.44;;;23.46;76.76
20624;BME280;10471;42.736;23.346;2023-09-19T09:18:06;95797.38;;;23.49;73.80
20624;BME280;10471;42.736;23.346;2023-09-19T09:20:32;95801.38;;;23.40;77.26
20624;BME280;10471;42.736;23.346;2023-09-19T09:22:57;95796.41;;;23.42;78.59
20624;BME280;10471;42.736;23.346;2023-09-19T09:26:07;95792.31;;;23.32;78.70
20624;BME280;10471;42.736;23.346;2023-09-19T09:28:35;95791.22;;;23.49;73.54
20624;BME280;10471;42.736;23.346;2023-09-19T09:31:02;95789.28;;;23.49;74.59
20624;BME280;10471;42.736;23.346;2023-09-19T09:33:33;95787.59;;;23.57;74.50
20624;BME280;10471;42.736;23.346;2023-09-19T09:36:00;95779.81;;;23.82;76.19
20624;BME280;10471;42.736;23.346;2023-09-19T09:38:29;95770.41;;;24.07;72.57
20624;BME280;10471;42.736;23.346;2023-09-19T09:40:59;95770.34;;;24.38;75.05
20624;BME280;10471;42.736;23.346;2023-09-19T09:43:38;95764.06;;;24.68;67.71
20624;BME280;10471;42.736;23.346;2023-09-19T09:46:18;95764.16;;;24.72;65.61
20624;BME280;10471;42.736;23.346;2023-09-19T09:48:58;95753.59;;;24.82;67.35
20624;BME280;10471;42.736;23.346;2023-09-19T09:51:43;95753.16;;;24.99;67.46
20624;BME280;10471;42.736;23.346;2023-09-19T09:54:18;95755.66;;;25.08;65.19
20624;BME280;10471;42.736;23.346;2023-09-19T09:57:00;95757.38;;;25.15;64.41
20624;BME280;10471;42.736;23.346;2023-09-19T10:02:29;95758.22;;;25.19;63.18
20624;BME280;10471;42.736;23.346;2023-09-19T10:04:59;95755.47;;;25.38;63.62
20624;BME280;10471;42.736;23.346;2023-09-19T10:07:36;95750.44;;;25.59;62.67
20624;BME280;10471;42.736;23.346;2023-09-19T10:10:04;95760.09;;;25.60;59.46
20624;BME280;10471;42.736;23.346;2023-09-19T10:12:48;95747.94;;;25.47;61.65
20624;BME280;10471;42.736;23.346;2023-09-19T10:15:18;95750.06;;;25.38;64.42
20624;BME280;10471;42.736;23.346;2023-09-19T10:17:46;95743.91;;;25.38;62.74
20624;BME280;10471;42.736;23.346;2023-09-19T10:20:18;95740.13;;;25.65;60.58
20624;BME280;10471;42.736;23.346;2023-09-19T10:23:06;95745.53;;;25.42;60.40
20624;BME280;10471;42.736;23.346;2023-09-19T10:25:42;95741.03;;;25.50;62.63
20624;BME280;10471;42.736;23.346;2023-09-19T10:28:10;95744.25;;;25.59;59.85
20624;BME280;10471;42.736;23.346;2023-09-19T10:30:46;95735.84;;;25.64;63.19
20624;BME280;10471;42.736;23.346;2023-09-19T10:33:17;95732.19;;;25.72;61.40
20624;BME280;10471;42.736;23.346;2023-09-19T10:35:46;95730.78;;;25.81;57.35
20624;BME280;10471;42.736;23.346;2023-09-19T10:38:14;95730.06;;;25.84;57.82
20624;BME280;10471;42.736;23.346;2023-09-19T10:40:40;95730.16;;;25.91;61.02
20624;BME280;10471;42.736;23.346;2023-09-19T10:43:12;95723.41;;;26.04;61.32
20624;BME280;10471;42.736;23.346;2023-09-19T10:45:43;95723.63;;;25.92;56.00
20624;BME280;10471;42.736;23.346;2023-09-19T10:48:09;95718.69;;;25.97;58.64
20624;BME280;10471;42.736;23.346;2023-09-19T10:50:48;95714.69;;;25.88;60.43
20624;BME280;10471;42.736;23.346;2023-09-19T10:53:16;95717.91;;;25.97;61.92
20624;BME280;10471;42.736;23.346;2023-09-19T10:55:52;95712.56;;;26.00;59.00
20624;BME280;10471;42.736;23.346;2023-09-19T10:58:31;95714.06;;;25.98;58.23
20624;BME280;10471;42.736;23.346;2023-09-19T11:01:04;95714.31;;;26.15;58.40
20624;BME280;10471;42.736;23.346;2023-09-19T11:03:38;95714.63;;;26.10;56.98
20624;BME280;10471;42.736;23.346;2023-09-19T11:06:16;95708.22;;;26.22;56.92
20624;BME280;10471;42.736;23.346;2023-09-19T11:08:55;95711.25;;;26.17;54.86
20624;BME280;10471;42.736;23.346;2023-09-19T11:30:49;95683.09;;;26.47;56.63
20624;BME280;10471;42.736;23.346;2023-09-19T11:33:22;95679.81;;;26.60;58.40
20624;BME280;10471;42.736;23.346;2023-09-19T11:36:12;95681.53;;;26.46;56.94
20624;BME280;10471;42.736;23.346;2023-09-19T11:46:33;95649.75;;;27.02;56.09
20624;BME280;10471;42.736;23.346;2023-09-19T11:49:06;95653.03;;;27.21;56.99
20624;BME280;10471;42.736;23.346;2023-09-19T11:51:42;95649.78;;;27.05;52.48
20624;BME280;10471;42.736;23.346;2023-09-19T11:54:13;95654.28;;;26.94;51.93
20624;BME280;10471;42.736;23.346;2023-09-19T11:56:44;95646.34;;;26.75;53.24
20624;BME280;10471;42.736;23.346;2023-09-19T11:59:11;95639.47;;;26.81;52.89
20624;BME280;10471;42.736;23.346;2023-09-19T12:01:38;95638.66;;;27.14;53.75
20624;BME280;10471;42.736;23.346;2023-09-19T12:04:11;95631.81;;;26.90;52.75
20624;BME280;10471;42.736;23.346;2023-09-19T12:06:37;95639.78;;;27.09;52.31
20624;BME280;10471;42.736;23.346;2023-09-19T12:09:04;95631.25;;;27.07;54.55
20624;BME280;10471;42.736;23.346;2023-09-19T12:11:41;95621.41;;;27.32;53.58
20624;BME280;10471;42.736;23.346;2023-09-19T12:14:09;95620.72;;;27.42;53.29
20624;BME280;10471;42.736;23.346;2023-09-19T12:16:34;95609.91;;;27.45;52.27
20624;BME280;10471;42.736;23.346;2023-09-19T12:19:22;95603.88;;;27.62;51.26
20624;BME280;10471;42.736;23.346;2023-09-19T12:22:00;95612.41;;;27.68;51.67
20624;BME280;10471;42.736;23.346;2023-09-19T12:24:34;95600.66;;;27.50;51.61
20624;BME280;10471;42.736;23.346;2023-09-19T12:27:06;95606.38;;;27.88;53.79
20624;BME280;10471;42.736;23.346;2023-09-19T12:29:45;95595.78;;;27.69;52.92
20624;BME280;10471;42.736;23.346;2023-09-19T12:32:12;95590.19;;;28.05;50.88
20624;BME280;10471;42.736;23.346;2023-09-19T12:34:38;95594.97;;;28.29;50.69
20624;BME280;10471;42.736;23.346;2023-09-19T12:37:11;95588.91;;;28.63;48.53
20624;BME280;10471;42.736;23.346;2023-09-19T12:39:44;95593.94;;;28.58;49.12
20624;BME280;10471;42.736;23.346;2023-09-19T12:42:15;95588.63;;;28.01;48.97
20624;BME280;10471;42.736;23.346;2023-09-19T12:44:45;95583.75;;;28.34;49.78
20624;BME280;10471;42.736;23.346;2023-09-19T12:47:17;95590.41;;;28.51;50.95
20624;BME280;10471;42.736;23.346;2023-09-19T12:50:13;95588.91;;;28.67;48.54
20624;BME280;10471;42.736;23.346;2023-09-19T12:52:52;95582.41;;;28.96;48.22
20624;BME280;10471;42.736;23.346;2023-09-19T13:00:21;95571.97;;;29.25;47.07
20624;BME280;10471;42.736;23.346;2023-09-19T13:03:19;95565.00;;;29.42;46.96
20624;BME280;10471;42.736;23.346;2023-09-19T13:06:08;95559.53;;;29.59;47.10
20624;BME280;10471;42.736;23.346;2023-09-19T13:08:36;95550.97;;;29.64;45.93
20624;BME280;10471;42.736;23.346;2023-09-19T13:13:38;95554.50;;;29.47;46.13
20624;BME280;10471;42.736;23.346;2023-09-19T13:16:04;95553.69;;;29.64;46.68
20624;BME280;10471;42.736;23.346;2023-09-19T13:21:13;95546.31;;;29.68;46.12
20624;BME280;10471;42.736;23.346;2023-09-19T13:23:55;95552.97;;;29.50;45.91
20624;BME280;10471;42.736;23.346;2023-09-19T13:26:27;95541.69;;;29.44;46.17
20624;BME280;10471;42.736;23.346;2023-09-19T13:28:56;95533.91;;;29.67;47.42
20624;BME280;10471;42.736;23.346;2023-09-19T13:31:21;95535.41;;;29.72;46.31
20624;BME280;10471;42.736;23.346;2023-09-19T13:33:48;95534.63;;;29.88;45.97
20624;BME280;10471;42.736;23.346;2023-09-19T13:36:14;95531.84;;;30.09;46.50
20624;BME280;10471;42.736;23.346;2023-09-19T13:38:43;95536.78;;;30.32;45.91
20624;BME280;10471;42.736;23.346;2023-09-19T13:41:09;95530.91;;;30.51;44.81
20624;BME280;10471;42.736;23.346;2023-09-19T13:43:36;95536.66;;;30.66;44.87
20624;BME280;10471;42.736;23.346;2023-09-19T13:46:01;95529.22;;;30.74;44.35
20624;BME280;10471;42.736;23.346;2023-09-19T13:48:27;95531.53;;;30.75;45.01
20624;BME280;10471;42.736;23.346;2023-09-19T13:50:55;95529.56;;;30.79;43.24
20624;BME280;10471;42.736;23.346;2023-09-19T13:53:21;95524.22;;;30.65;43.08
20624;BME280;10471;42.736;23.346;2023-09-19T13:55:46;95517.66;;;30.56;44.11